createdAt,value
2023-06-27T00:00:14.834Z,1.48
2023-06-27T00:02:44.233Z,1.27
2023-06-27T00:05:10.381Z,1.58
2023-06-27T00:07:36.778Z,1.80
2023-06-27T00:10:06.440Z,1.60
2023-06-27T00:12:32.648Z,1.60
2023-06-27T00:14:59.555Z,1.52
2023-06-27T00:17:25.697Z,2.03
2023-06-27T00:19:58.673Z,1.70
2023-06-27T00:22:26.956Z,1.45
2023-06-27T00:24:54.033Z,1.33
2023-06-27T00:27:20.996Z,1.40
2023-06-27T00:29:47.575Z,1.60
2023-06-27T00:32:13.708Z,1.73
2023-06-27T00:34:39.782Z,1.42
2023-06-27T00:37:06.500Z,1.67
2023-06-27T00:39:32.732Z,2.20
2023-06-27T00:41:59.494Z,1.48
2023-06-27T00:44:28.804Z,1.23
2023-06-27T00:46:54.944Z,2.08
2023-06-27T00:49:21.522Z,1.55
2023-06-27T00:51:48.257Z,1.98
2023-06-27T00:54:17.039Z,1.58
2023-06-27T00:56:46.412Z,1.55
2023-06-27T00:59:13.191Z,1.90
2023-06-27T01:01:39.278Z,1.52
2023-06-27T01:04:05.879Z,1.67
2023-06-27T01:06:44.889Z,2.80
2023-06-27T01:09:20.902Z,2.05
2023-06-27T01:11:52.439Z,2.03
2023-06-27T01:14:19.234Z,1.80
2023-06-27T01:16:46.778Z,1.73
2023-06-27T01:19:16.196Z,2.00
2023-06-27T01:21:44.461Z,2.78
2023-06-27T01:24:14.476Z,2.15
2023-06-27T01:26:40.547Z,1.95
2023-06-27T01:29:09.237Z,1.83
2023-06-27T01:31:40.869Z,2.70
2023-06-27T01:34:15.191Z,2.25
2023-06-27T01:36:45.407Z,1.85
2023-06-27T01:39:14.242Z,1.85
2023-06-27T01:41:42.014Z,1.50
2023-06-27T01:44:13.194Z,1.75
2023-06-27T01:46:39.426Z,2.08
2023-06-27T01:49:05.648Z,2.00
2023-06-27T01:51:33.412Z,2.30
2023-06-27T01:53:59.819Z,1.63
2023-06-27T01:56:25.980Z,2.22
2023-06-27T01:59:01.522Z,2.33
2023-06-27T02:01:28.541Z,2.20
2023-06-27T02:03:54.650Z,2.53
2023-06-27T02:06:20.769Z,2.22
2023-06-27T02:08:48.246Z,2.30
2023-06-27T02:11:15.444Z,2.38
2023-06-27T02:13:41.660Z,2.28
2023-06-27T02:16:12.029Z,2.63
2023-06-27T02:18:38.104Z,1.98
2023-06-27T02:21:07.010Z,2.38
2023-06-27T02:23:33.932Z,1.98
2023-06-27T02:26:01.384Z,3.00
2023-06-27T02:28:27.434Z,1.88
2023-06-27T02:30:56.795Z,2.05
2023-06-27T02:33:22.855Z,1.90
2023-06-27T02:35:48.955Z,2.47
2023-06-27T02:38:15.816Z,2.05
2023-06-27T02:40:41.913Z,3.08
2023-06-27T02:43:10.661Z,3.00
2023-06-27T02:45:37.000Z,2.30
2023-06-27T02:48:03.331Z,2.95
2023-06-27T02:50:29.438Z,3.28
2023-06-27T02:52:55.557Z,2.63
2023-06-27T02:55:21.652Z,2.75
2023-06-27T02:57:47.694Z,2.50
2023-06-27T03:00:16.610Z,2.67
2023-06-27T03:02:42.768Z,2.80
2023-06-27T03:05:09.151Z,2.90
2023-06-27T03:07:37.593Z,2.20
2023-06-27T03:10:04.068Z,2.88
2023-06-27T03:12:30.289Z,2.60
2023-06-27T03:14:57.178Z,2.53
2023-06-27T03:17:23.240Z,3.40
2023-06-27T03:19:49.502Z,2.38
2023-06-27T03:22:15.620Z,2.80
2023-06-27T03:24:41.839Z,2.58
2023-06-27T03:27:07.929Z,3.15
2023-06-27T03:29:34.126Z,3.42
2023-06-27T03:32:00.203Z,5.50
2023-06-27T03:34:26.287Z,2.80
2023-06-27T03:36:53.957Z,3.00
2023-06-27T03:39:21.834Z,2.75
2023-06-27T03:41:47.981Z,2.42
2023-06-27T03:44:15.723Z,3.20
2023-06-27T03:46:41.977Z,2.75
2023-06-27T03:49:10.311Z,2.60
2023-06-27T03:51:37.644Z,3.00
2023-06-27T03:54:07.068Z,2.35
2023-06-27T03:56:33.774Z,2.97
2023-06-27T03:59:00.145Z,2.83
2023-06-27T04:01:26.329Z,2.67
2023-06-27T04:03:52.540Z,2.75
2023-06-27T04:06:21.700Z,3.72
2023-06-27T04:08:47.812Z,2.85
2023-06-27T04:11:13.896Z,2.60
2023-06-27T04:13:41.014Z,2.58
2023-06-27T04:16:07.092Z,2.83
2023-06-27T04:18:33.512Z,3.38
2023-06-27T04:21:04.786Z,2.92
2023-06-27T04:23:30.881Z,2.47
2023-06-27T04:26:04.418Z,2.65
2023-06-27T04:28:34.432Z,2.22
2023-06-27T04:31:01.420Z,3.50
2023-06-27T04:33:30.552Z,2.50
2023-06-27T04:36:03.114Z,2.72
2023-06-27T04:38:30.328Z,4.10
2023-06-27T04:40:56.841Z,4.07
2023-06-27T04:43:23.139Z,2.55
2023-06-27T04:45:49.476Z,2.55
2023-06-27T04:48:15.521Z,2.75
2023-06-27T04:50:44.005Z,3.10
2023-06-27T04:53:10.084Z,3.15
2023-06-27T04:55:39.423Z,2.50
2023-06-27T04:58:05.729Z,2.55
2023-06-27T05:00:31.837Z,3.28
2023-06-27T05:02:58.142Z,2.40
2023-06-27T05:05:32.360Z,3.03
2023-06-27T05:07:59.322Z,2.70
2023-06-27T05:10:25.378Z,2.67
2023-06-27T05:12:53.659Z,2.92
2023-06-27T05:15:19.745Z,2.28
2023-06-27T05:18:14.263Z,3.58
2023-06-27T05:20:43.715Z,2.08
2023-06-27T05:23:11.935Z,2.72
2023-06-27T05:25:38.656Z,2.60
2023-06-27T05:28:05.086Z,2.45
2023-06-27T05:30:32.365Z,2.65
2023-06-27T05:32:59.091Z,2.88
2023-06-27T05:35:25.399Z,2.63
2023-06-27T05:37:52.754Z,2.30
2023-06-27T05:40:18.824Z,2.75
2023-06-27T05:42:44.820Z,3.28
2023-06-27T05:45:12.084Z,2.28
2023-06-27T05:47:38.578Z,2.38
2023-06-27T05:50:05.478Z,2.17
2023-06-27T05:52:32.523Z,2.80
2023-06-27T05:54:59.350Z,2.20
2023-06-27T05:57:25.592Z,2.60
2023-06-27T05:59:53.370Z,2.15
2023-06-27T06:02:22.723Z,2.83
2023-06-27T06:04:49.234Z,2.10
2023-06-27T06:07:21.251Z,2.03
2023-06-27T06:09:50.226Z,2.30
2023-06-27T06:12:16.470Z,2.25
2023-06-27T06:14:46.465Z,2.25
2023-06-27T06:17:12.591Z,2.30
2023-06-27T06:19:38.662Z,2.50
2023-06-27T06:22:05.643Z,1.98
2023-06-27T06:24:34.614Z,2.35
2023-06-27T06:27:00.824Z,2.30
2023-06-27T06:29:27.196Z,2.55
2023-06-27T06:31:53.440Z,2.53
2023-06-27T06:34:19.619Z,2.00
2023-06-27T06:36:45.824Z,2.55
2023-06-27T06:39:12.004Z,2.38
2023-06-27T06:41:38.105Z,2.17
2023-06-27T06:44:06.795Z,2.25
2023-06-27T06:46:32.999Z,2.33
2023-06-27T06:48:59.221Z,2.22
2023-06-27T06:51:25.507Z,1.85
2023-06-27T06:53:51.627Z,1.90
2023-06-27T06:56:17.945Z,1.95
2023-06-27T06:58:45.015Z,2.55
2023-06-27T07:01:13.942Z,1.55
2023-06-27T07:03:40.161Z,1.85
2023-06-27T07:06:06.269Z,2.25
2023-06-27T07:08:32.423Z,2.10
2023-06-27T07:10:58.542Z,1.67
2023-06-27T07:13:24.676Z,2.10
2023-06-27T07:15:50.792Z,2.03
2023-06-27T07:18:16.854Z,1.77
2023-06-27T07:20:45.256Z,1.33
2023-06-27T07:23:13.163Z,1.38
2023-06-27T07:25:42.671Z,1.40
2023-06-27T07:28:11.388Z,1.23
2023-06-27T07:30:37.455Z,1.80
2023-06-27T07:33:03.768Z,2.00
2023-06-27T07:35:33.198Z,1.65
2023-06-27T07:37:59.284Z,2.45
2023-06-27T07:40:25.346Z,1.70
2023-06-27T07:42:52.400Z,2.55
2023-06-27T07:45:18.441Z,1.52
2023-06-27T07:47:44.665Z,1.98
2023-06-27T07:50:13.368Z,1.58
2023-06-27T07:52:40.603Z,1.60
2023-06-27T07:55:07.276Z,1.70
2023-06-27T07:57:35.943Z,1.58
2023-06-27T08:00:02.154Z,1.55
2023-06-27T08:02:32.186Z,1.77
2023-06-27T08:04:58.795Z,1.35
2023-06-27T08:07:24.962Z,1.63
2023-06-27T08:09:51.145Z,1.10
2023-06-27T08:12:19.720Z,1.25
2023-06-27T08:14:48.199Z,0.90
2023-06-27T08:17:14.204Z,1.10
2023-06-27T08:19:40.284Z,1.15
2023-06-27T08:22:08.976Z,1.50
2023-06-27T08:24:41.600Z,1.10
2023-06-27T08:27:08.949Z,0.95
2023-06-27T08:29:35.134Z,1.30
2023-06-27T08:32:07.105Z,1.25
2023-06-27T08:34:37.258Z,1.00
2023-06-27T08:37:03.490Z,1.20
2023-06-27T08:39:31.305Z,1.05
2023-06-27T08:41:57.792Z,1.58
2023-06-27T08:44:23.961Z,1.17
2023-06-27T08:46:51.109Z,1.05
2023-06-27T08:49:23.600Z,1.35
2023-06-27T08:52:00.526Z,1.08
2023-06-27T08:54:35.245Z,1.00
2023-06-27T08:59:38.752Z,1.40
2023-06-27T09:02:06.972Z,1.10
2023-06-27T09:04:34.847Z,1.13
2023-06-27T09:07:02.001Z,0.82
2023-06-27T09:09:31.764Z,1.30
2023-06-27T09:12:01.462Z,0.80
2023-06-27T09:14:27.777Z,1.05
2023-06-27T09:17:08.189Z,1.33
2023-06-27T09:19:36.605Z,0.88
2023-06-27T09:22:02.829Z,1.45
2023-06-27T09:24:31.418Z,1.88
2023-06-27T09:27:02.453Z,1.48
2023-06-27T09:29:33.028Z,1.80
2023-06-27T09:32:09.618Z,1.65
2023-06-27T09:34:36.608Z,1.75
2023-06-27T09:39:33.388Z,1.33
2023-06-27T09:41:59.552Z,1.85
2023-06-27T09:44:26.205Z,1.70
2023-06-27T09:46:53.104Z,1.35
2023-06-27T09:49:20.440Z,1.30
2023-06-27T09:51:47.895Z,3.10
2023-06-27T09:57:12.309Z,1.50
2023-06-27T09:59:40.673Z,1.17
2023-06-27T10:02:15.459Z,1.30
2023-06-27T10:04:42.000Z,1.30
2023-06-27T10:07:13.922Z,1.15
2023-06-27T10:09:40.330Z,1.00
2023-06-27T10:12:10.252Z,1.42
2023-06-27T10:14:36.707Z,1.23
2023-06-27T10:17:05.680Z,0.98
2023-06-27T10:22:10.995Z,1.13
2023-06-27T10:24:41.748Z,1.00
2023-06-27T10:27:08.665Z,1.08
2023-06-27T10:29:40.117Z,0.90
2023-06-27T10:32:09.254Z,0.88
2023-06-27T10:34:43.462Z,1.10
2023-06-27T10:37:21.693Z,0.80
2023-06-27T10:39:59.064Z,0.82
2023-06-27T10:42:25.052Z,1.20
2023-06-27T10:45:14.912Z,1.48
2023-06-27T10:47:44.253Z,1.10
2023-06-27T10:50:35.916Z,0.70
2023-06-27T10:53:16.682Z,0.90
2023-06-27T10:55:42.827Z,0.60
2023-06-27T10:58:14.312Z,1.02
2023-06-27T11:00:46.836Z,0.85
2023-06-27T11:03:19.291Z,0.82
2023-06-27T11:05:55.354Z,0.63
2023-06-27T11:08:22.126Z,1.08
2023-06-27T11:11:00.091Z,0.80
2023-06-27T11:13:31.844Z,0.73
2023-06-27T11:15:58.029Z,1.00
2023-06-27T11:20:59.707Z,0.95
2023-06-27T11:23:30.210Z,1.23
2023-06-27T11:25:56.470Z,1.00
2023-06-27T11:28:23.707Z,1.13
2023-06-27T11:30:50.273Z,0.77
2023-06-27T11:33:20.549Z,0.90
2023-06-27T11:35:46.776Z,0.77
2023-06-27T11:38:13.594Z,0.60
2023-06-27T11:40:50.540Z,0.68
2023-06-27T11:43:17.129Z,0.95
2023-06-27T11:45:51.848Z,1.10
2023-06-27T11:48:18.855Z,1.00
2023-06-27T11:51:12.780Z,0.90
2023-06-27T11:53:39.586Z,1.00
2023-06-27T11:58:38.518Z,1.13
2023-06-27T12:01:15.651Z,0.80
2023-06-27T12:03:47.731Z,0.90
2023-06-27T12:06:27.188Z,0.95
2023-06-27T12:08:56.186Z,0.70
2023-06-27T12:11:30.065Z,0.98
2023-06-27T12:13:57.082Z,0.68
2023-06-27T12:16:28.585Z,0.60
2023-06-27T12:19:15.168Z,0.88
2023-06-27T12:21:41.343Z,0.98
2023-06-27T12:24:10.419Z,0.70
2023-06-27T12:26:36.726Z,0.52
2023-06-27T12:29:04.915Z,0.73
2023-06-27T12:31:31.800Z,0.80
2023-06-27T12:34:01.088Z,1.05
2023-06-27T12:36:28.058Z,0.73
2023-06-27T12:38:54.617Z,0.90
2023-06-27T12:41:23.096Z,0.63
2023-06-27T12:43:50.094Z,0.70
2023-06-27T12:46:16.117Z,0.75
2023-06-27T12:48:43.801Z,0.60
2023-06-27T12:51:12.327Z,1.10
2023-06-27T12:53:38.445Z,0.73
2023-06-27T12:59:32.866Z,0.80
2023-06-27T13:02:00.825Z,0.85
2023-06-27T13:04:31.218Z,0.80
2023-06-27T13:07:00.475Z,1.33
2023-06-27T13:09:27.366Z,0.70
2023-06-27T13:11:57.759Z,0.90
2023-06-27T13:14:23.949Z,1.17
2023-06-27T13:16:51.252Z,0.90
2023-06-27T13:19:17.815Z,0.80
2023-06-27T13:21:44.910Z,1.10
2023-06-27T13:24:12.335Z,0.60
2023-06-27T13:26:39.482Z,0.70
2023-06-27T13:29:10.084Z,0.90
2023-06-27T13:31:36.642Z,0.90
2023-06-27T13:34:05.344Z,0.80
2023-06-27T13:36:34.087Z,0.70
2023-06-27T13:39:03.987Z,1.02
2023-06-27T13:41:31.094Z,0.50
2023-06-27T13:43:57.284Z,0.90
2023-06-27T13:46:23.384Z,0.70
2023-06-27T13:48:51.670Z,1.05
2023-06-27T13:51:18.260Z,0.80
2023-06-27T13:53:44.399Z,1.00
2023-06-27T13:56:10.569Z,0.85
2023-06-27T13:58:39.625Z,0.90
2023-06-27T14:01:05.684Z,0.77
2023-06-27T14:03:32.333Z,0.85
2023-06-27T14:05:59.602Z,0.88
2023-06-27T14:08:25.924Z,0.85
2023-06-27T14:10:52.559Z,1.17
2023-06-27T14:13:23.882Z,0.50
2023-06-27T14:15:50.012Z,0.80
2023-06-27T14:18:16.213Z,0.90
2023-06-27T14:20:43.329Z,0.73
2023-06-27T14:23:09.606Z,0.82
2023-06-27T14:25:35.691Z,0.80
2023-06-27T14:28:07.566Z,0.70
2023-06-27T14:30:34.003Z,0.70
2023-06-27T14:33:00.350Z,1.08
2023-06-27T14:35:29.654Z,0.63
2023-06-27T14:37:55.753Z,0.85
2023-06-27T14:40:22.000Z,0.80
2023-06-27T14:42:48.348Z,1.80
2023-06-27T14:45:14.583Z,0.70
2023-06-27T14:47:40.664Z,1.05
2023-06-27T14:50:07.229Z,1.20
2023-06-27T14:52:35.607Z,0.85
2023-06-27T14:55:02.999Z,0.80
2023-06-27T14:57:31.176Z,0.95
2023-06-27T14:59:57.345Z,0.70
2023-06-27T15:02:23.468Z,0.60
2023-06-27T15:04:52.628Z,0.60
2023-06-27T15:07:18.950Z,0.63
2023-06-27T15:09:45.011Z,0.70
2023-06-27T15:12:14.553Z,0.95
2023-06-27T15:14:49.967Z,0.90
2023-06-27T15:17:18.068Z,0.90
2023-06-27T15:19:49.017Z,1.00
2023-06-27T15:22:15.312Z,0.80
2023-06-27T15:24:41.674Z,1.13
2023-06-27T15:27:07.727Z,1.00
2023-06-27T15:29:33.752Z,0.90
2023-06-27T15:31:59.816Z,1.02
2023-06-27T15:34:25.926Z,1.58
2023-06-27T15:36:52.507Z,0.80
2023-06-27T15:39:24.211Z,0.95
2023-06-27T15:41:50.394Z,0.77
2023-06-27T15:44:19.318Z,0.88
2023-06-27T15:46:45.978Z,0.80
2023-06-27T15:49:17.113Z,0.80
2023-06-27T15:51:43.843Z,0.85
2023-06-27T15:54:11.222Z,0.63
2023-06-27T15:56:38.842Z,0.82
2023-06-27T15:59:05.020Z,0.70
2023-06-27T16:01:33.973Z,1.13
2023-06-27T16:04:01.437Z,0.80
2023-06-27T16:06:37.333Z,1.05
2023-06-27T16:09:04.177Z,0.60
2023-06-27T16:11:32.081Z,0.63
2023-06-27T16:14:00.046Z,0.70
2023-06-27T16:16:26.268Z,0.70
2023-06-27T16:18:55.004Z,0.60
2023-06-27T16:21:24.082Z,0.77
2023-06-27T16:23:50.419Z,0.60
2023-06-27T16:26:16.468Z,0.82
2023-06-27T16:28:43.444Z,0.85
2023-06-27T16:31:10.408Z,0.93
2023-06-27T16:33:36.815Z,0.73
2023-06-27T16:36:03.896Z,0.60
2023-06-27T16:38:36.971Z,0.60
2023-06-27T16:41:03.487Z,0.60
2023-06-27T16:43:30.998Z,0.80
2023-06-27T16:45:58.761Z,0.70
2023-06-27T16:48:25.123Z,0.70
2023-06-27T16:50:53.754Z,0.70
2023-06-27T16:53:20.301Z,0.80
2023-06-27T16:56:06.776Z,0.90
2023-06-27T16:58:38.656Z,0.50
2023-06-27T17:01:06.643Z,0.50
2023-06-27T17:03:32.911Z,0.82
2023-06-27T17:05:59.162Z,0.88
2023-06-27T17:08:25.387Z,0.90
2023-06-27T17:10:51.544Z,0.70
2023-06-27T17:13:18.822Z,0.90
2023-06-27T17:15:45.853Z,0.95
2023-06-27T17:18:12.259Z,1.25
2023-06-27T17:20:40.939Z,0.80
2023-06-27T17:23:07.129Z,0.90
2023-06-27T17:25:33.227Z,1.20
2023-06-27T17:28:00.265Z,1.02
2023-06-27T17:30:26.548Z,1.10
2023-06-27T17:32:52.641Z,0.50
2023-06-27T17:35:18.756Z,0.80
2023-06-27T17:37:46.793Z,1.10
2023-06-27T17:40:13.227Z,0.80
2023-06-27T17:42:39.315Z,0.70
2023-06-27T17:45:06.099Z,0.77
2023-06-27T17:47:33.160Z,1.05
2023-06-27T17:49:59.324Z,0.68
2023-06-27T17:52:26.176Z,0.80
2023-06-27T17:54:52.309Z,0.85
2023-06-27T17:57:21.063Z,0.60
2023-06-27T17:59:48.715Z,0.50
2023-06-27T18:02:14.814Z,0.80
2023-06-27T18:04:42.582Z,0.60
2023-06-27T18:09:53.916Z,0.55
2023-06-27T18:12:23.020Z,0.70
2023-06-27T18:14:49.259Z,0.68
2023-06-27T18:17:15.350Z,0.93
2023-06-27T18:19:45.229Z,0.93
2023-06-27T18:22:14.377Z,0.50
2023-06-27T18:24:44.321Z,1.00
2023-06-27T18:27:10.547Z,0.70
2023-06-27T18:29:36.740Z,0.80
2023-06-27T18:32:02.936Z,0.80
2023-06-27T18:34:30.030Z,0.55
2023-06-27T18:36:56.308Z,0.70
2023-06-27T18:39:22.293Z,0.70
2023-06-27T18:41:49.546Z,0.90
2023-06-27T18:44:15.655Z,1.17
2023-06-27T18:46:42.062Z,0.70
2023-06-27T18:49:11.238Z,0.82
2023-06-27T18:51:39.889Z,0.70
2023-06-27T18:54:08.980Z,0.70
2023-06-27T18:56:40.756Z,0.73
2023-06-27T18:59:08.024Z,0.93
2023-06-27T19:01:34.205Z,1.00
2023-06-27T19:04:00.405Z,1.02
2023-06-27T19:06:30.529Z,1.00
2023-06-27T19:08:57.132Z,1.00
2023-06-27T19:11:29.380Z,1.05
2023-06-27T19:13:56.596Z,1.02
2023-06-27T19:16:22.834Z,1.00
2023-06-27T19:18:49.711Z,0.70
2023-06-27T19:21:19.193Z,1.00
2023-06-27T19:23:45.346Z,1.05
2023-06-27T19:26:11.981Z,0.90
2023-06-27T19:28:39.328Z,0.88
2023-06-27T19:31:05.807Z,1.25
2023-06-27T19:33:31.968Z,1.33
2023-06-27T19:36:03.044Z,1.10
2023-06-27T19:38:29.298Z,1.00
2023-06-27T19:40:56.962Z,1.02
2023-06-27T19:43:23.223Z,0.70
2023-06-27T19:45:51.906Z,0.90
2023-06-27T19:48:19.376Z,1.00
2023-06-27T19:50:47.989Z,1.00
2023-06-27T19:53:16.223Z,0.77
2023-06-27T19:55:44.503Z,0.88
2023-06-27T19:58:10.675Z,0.90
2023-06-27T20:00:36.725Z,1.27
2023-06-27T20:03:03.248Z,1.25
2023-06-27T20:05:33.168Z,0.90
2023-06-27T20:07:59.391Z,0.90
2023-06-27T20:10:25.613Z,1.17
2023-06-27T20:12:52.162Z,0.95
2023-06-27T20:15:18.431Z,0.70
2023-06-27T20:17:47.654Z,0.85
2023-06-27T20:20:14.850Z,1.02
2023-06-27T20:22:42.606Z,1.02
2023-06-27T20:25:09.908Z,0.95
2023-06-27T20:27:36.427Z,0.80
2023-06-27T20:30:02.656Z,1.50
2023-06-27T20:32:33.447Z,0.88
2023-06-27T20:34:59.680Z,1.00
2023-06-27T20:37:25.814Z,1.10
2023-06-27T20:39:52.144Z,1.10
2023-06-27T20:42:18.409Z,0.90
2023-06-27T20:44:46.198Z,1.25
2023-06-27T20:47:12.882Z,1.33
2023-06-27T20:49:38.967Z,1.63
2023-06-27T20:52:05.783Z,1.05
2023-06-27T20:54:32.229Z,1.00
2023-06-27T20:56:58.546Z,1.10
2023-06-27T20:59:24.837Z,1.00
2023-06-27T21:01:54.380Z,1.10
2023-06-27T21:04:20.767Z,1.38
2023-06-27T21:06:46.932Z,1.42
2023-06-27T21:09:13.188Z,1.02
2023-06-27T21:11:39.301Z,0.77
2023-06-27T21:14:07.648Z,1.08
2023-06-27T21:16:34.045Z,1.15
2023-06-27T21:19:00.090Z,0.95
2023-06-27T21:21:26.204Z,1.00
2023-06-27T21:23:52.338Z,0.98
2023-06-27T21:26:18.594Z,0.90
2023-06-27T21:28:45.674Z,0.77
2023-06-27T21:31:14.306Z,1.30
2023-06-27T21:33:42.103Z,1.27
2023-06-27T21:36:08.399Z,1.00
2023-06-27T21:38:37.515Z,1.00
2023-06-27T21:41:03.627Z,1.10
2023-06-27T21:43:29.848Z,1.02
2023-06-27T21:45:56.789Z,0.93
2023-06-27T21:48:22.902Z,1.13
2023-06-27T21:50:49.242Z,0.82
2023-06-27T21:53:18.484Z,1.05
2023-06-27T21:55:44.676Z,0.98
2023-06-27T21:58:10.804Z,1.00
2023-06-27T22:00:36.933Z,1.08
2023-06-27T22:03:03.295Z,1.85
2023-06-27T22:05:29.563Z,1.02
2023-06-27T22:07:57.559Z,1.85
2023-06-27T22:10:24.065Z,1.52
2023-06-27T22:13:06.751Z,1.13
2023-06-27T22:18:51.234Z,1.50
2023-06-27T22:21:53.435Z,1.25
2023-06-27T22:24:38.426Z,1.20
2023-06-27T22:27:05.711Z,1.20
2023-06-27T22:29:32.072Z,1.50
2023-06-27T22:31:58.205Z,1.60
2023-06-27T22:34:24.473Z,1.15
2023-06-27T22:36:50.589Z,1.42
2023-06-27T22:39:16.623Z,1.50
2023-06-27T22:41:42.959Z,1.13
2023-06-27T22:44:10.013Z,1.90
2023-06-27T22:46:37.127Z,1.27
2023-06-27T22:49:03.363Z,1.25
2023-06-27T22:51:29.436Z,1.10
2023-06-27T22:53:56.195Z,1.40
2023-06-27T22:56:23.362Z,1.70
2023-06-27T22:58:49.976Z,1.33
2023-06-27T23:01:16.505Z,1.50
2023-06-27T23:03:43.010Z,1.40
2023-06-27T23:06:09.444Z,1.25
2023-06-27T23:08:35.554Z,1.50
2023-06-27T23:11:01.755Z,1.55
2023-06-27T23:13:32.657Z,1.52
2023-06-27T23:16:00.397Z,1.23
2023-06-27T23:18:31.592Z,1.13
2023-06-27T23:21:03.198Z,1.58
2023-06-27T23:23:29.354Z,1.30
2023-06-27T23:25:59.581Z,1.50
2023-06-27T23:28:28.424Z,1.63
2023-06-27T23:30:54.579Z,1.48
2023-06-27T23:33:21.616Z,2.53
2023-06-27T23:35:49.335Z,1.50
2023-06-27T23:38:15.603Z,1.30
2023-06-27T23:40:42.393Z,1.52
2023-06-27T23:43:09.026Z,1.60
2023-06-27T23:45:38.217Z,3.20
2023-06-27T23:48:05.189Z,1.25
2023-06-27T23:50:32.195Z,1.67
2023-06-27T23:52:58.324Z,1.15
2023-06-27T23:55:26.136Z,1.40
2023-06-27T23:57:52.499Z,1.55
